Time;durP1;ratioP1;P1;durP2;ratioP2;P2;SDS_P1;SDS_P2;PMS_P1;PMS_P2;Temp;Humidity;BMP_temperature;BMP_pressure;BME280_temperature;BME280_humidity;BME280_pressure;Samples;Min_cycle;Max_cycle;Signal;HPM_P1;HPM_P2
2023/04/11 00:01:38;;;;;;;;;;;18.00;51.20;;;;;;6197047;28;20420;-68
2023/04/11 00:04:39;;;;;;;;;;;18.00;51.30;;;;;;6197395;28;19918;-68
2023/04/11 00:07:39;;;;;;;;;;;18.00;51.30;;;;;;6196476;28;19922;-68
2023/04/11 00:10:40;;;;;;;;;;;18.00;51.30;;;;;;6196997;28;19921;-68
2023/04/11 00:13:41;;;;;;;;;;;18.00;51.40;;;;;;6179661;28;19914;-68
2023/04/11 00:16:42;;;;;;;;;;;18.00;51.40;;;;;;6196947;28;20584;-67
2023/04/11 00:19:44;;;;;;;;;;;18.00;51.20;;;;;;6196730;28;19914;-68
2023/04/11 00:22:45;;;;;;;;;;;18.00;51.30;;;;;;6196976;28;19913;-68
2023/04/11 00:25:46;;;;;;;;;;;18.00;51.20;;;;;;6178854;28;19932;-68
2023/04/11 00:28:47;;;;;;;;;;;18.00;51.20;;;;;;6179212;28;19968;-68
2023/04/11 00:31:47;;;;;;;;;;;18.00;51.40;;;;;;6196628;28;19910;-68
2023/04/11 00:34:48;;;;;;;;;;;18.00;51.30;;;;;;6196704;28;19980;-68
2023/04/11 00:37:53;;;;;;;;;;;18.00;51.30;;;;;;6196387;28;19925;-68
2023/04/11 00:40:53;;;;;;;;;;;18.00;51.30;;;;;;6178986;28;19910;-68
2023/04/11 00:43:54;;;;;;;;;;;18.00;51.30;;;;;;6195963;28;19976;-68
2023/04/11 00:46:54;;;;;;;;;;;18.00;51.40;;;;;;6178786;28;19914;-68
2023/04/11 00:49:55;;;;;;;;;;;18.00;51.30;;;;;;6196180;28;19960;-68
2023/04/11 00:52:56;;;;;;;;;;;18.00;51.30;;;;;;6195977;28;20009;-68
2023/04/11 00:55:58;;;;;;;;;;;18.00;51.40;;;;;;6196035;28;19949;-68
2023/04/11 00:58:59;;;;;;;;;;;18.00;51.20;;;;;;6195739;28;19910;-68
2023/04/11 01:02:00;;;;;;;;;;;18.00;51.20;;;;;;6195855;28;19921;-68
2023/04/11 01:05:02;;;;;;;;;;;18.00;51.30;;;;;;6195967;28;20394;-68
2023/04/11 01:08:03;;;;;;;;;;;18.00;51.20;;;;;;6194529;28;19910;-68
2023/04/11 01:11:04;;;;;;;;;;;18.00;51.20;;;;;;6195386;28;20400;-68
2023/04/11 01:14:05;;;;;;;;;;;18.00;51.30;;;;;;6178113;28;19914;-71
2023/04/11 01:17:06;;;;;;;;;;;18.00;51.10;;;;;;6195372;28;19946;-68
2023/04/11 01:20:08;;;;;;;;;;;18.00;51.40;;;;;;6194740;28;19916;-67
2023/04/11 01:23:09;;;;;;;;;;;18.00;51.30;;;;;;6195248;28;19910;-68
2023/04/11 01:26:10;;;;;;;;;;;18.00;51.20;;;;;;6194791;28;19910;-67
2023/04/11 01:29:10;;;;;;;;;;;18.00;51.30;;;;;;6177742;28;19917;-68
2023/04/11 01:32:12;;;;;;;;;;;18.00;51.20;;;;;;6194033;28;19909;-68
2023/04/11 01:35:12;;;;;;;;;;;18.00;51.20;;;;;;6195295;28;19921;-67
2023/04/11 01:38:13;;;;;;;;;;;18.00;51.40;;;;;;6195310;28;19914;-68
2023/04/11 01:41:15;;;;;;;;;;;18.00;51.20;;;;;;6195221;28;19947;-68
2023/04/11 01:44:16;;;;;;;;;;;18.00;51.20;;;;;;6195170;28;19960;-68
2023/04/11 01:47:17;;;;;;;;;;;18.00;51.20;;;;;;6177588;28;19917;-68
2023/04/11 01:50:17;;;;;;;;;;;18.00;51.10;;;;;;6195653;28;19926;-68
2023/04/11 01:53:18;;;;;;;;;;;18.00;51.00;;;;;;6194835;28;20561;-68
2023/04/11 01:56:19;;;;;;;;;;;18.00;51.10;;;;;;6177816;28;19921;-68
2023/04/11 01:59:19;;;;;;;;;;;18.00;51.00;;;;;;6194908;28;19918;-68
2023/04/11 02:02:20;;;;;;;;;;;18.00;51.00;;;;;;6194516;28;19928;-67
2023/04/11 02:05:21;;;;;;;;;;;18.00;51.20;;;;;;6194939;28;19973;-68
2023/04/11 02:08:21;;;;;;;;;;;18.00;51.20;;;;;;6195522;28;19922;-68
2023/04/11 02:11:22;;;;;;;;;;;18.00;51.10;;;;;;6195042;28;19921;-68
2023/04/11 02:14:24;;;;;;;;;;;18.00;51.20;;;;;;6195394;28;19917;-68
2023/04/11 02:17:29;;;;;;;;;;;18.00;51.10;;;;;;6194988;28;19918;-68
2023/04/11 02:20:30;;;;;;;;;;;18.00;51.20;;;;;;6194985;28;19965;-67
2023/04/11 02:23:30;;;;;;;;;;;18.00;51.10;;;;;;6194494;28;20343;-68
2023/04/11 02:26:31;;;;;;;;;;;18.00;51.10;;;;;;6194732;28;19913;-68
2023/04/11 02:29:32;;;;;;;;;;;18.00;51.10;;;;;;6178139;28;19996;-68
2023/04/11 02:32:34;;;;;;;;;;;18.00;51.00;;;;;;6199650;28;19913;-68
2023/04/11 02:35:35;;;;;;;;;;;18.00;51.20;;;;;;6199987;28;19961;-68
2023/04/11 02:38:36;;;;;;;;;;;18.00;51.20;;;;;;6199364;28;19936;-67
2023/04/11 02:41:40;;;;;;;;;;;18.00;51.20;;;;;;6199602;28;19968;-68
2023/04/11 02:44:41;;;;;;;;;;;18.00;50.90;;;;;;6199165;28;19997;-68
2023/04/11 02:47:41;;;;;;;;;;;18.00;51.20;;;;;;6199404;28;20516;-68
2023/04/11 02:50:42;;;;;;;;;;;18.00;51.10;;;;;;6181726;28;19964;-68
2023/04/11 02:53:42;;;;;;;;;;;18.00;50.90;;;;;;6198926;28;19993;-67
2023/04/11 02:56:43;;;;;;;;;;;18.00;51.20;;;;;;6199419;28;20391;-68
2023/04/11 02:59:44;;;;;;;;;;;18.00;51.00;;;;;;6199010;28;19997;-68
2023/04/11 03:02:44;;;;;;;;;;;18.00;50.90;;;;;;6199078;28;19929;-67
2023/04/11 03:05:45;;;;;;;;;;;18.00;51.20;;;;;;6198327;28;19914;-67
2023/04/11 03:08:46;;;;;;;;;;;18.00;51.30;;;;;;6198447;28;20016;-67
2023/04/11 03:11:46;;;;;;;;;;;18.00;51.20;;;;;;6198756;28;19918;-68
2023/04/11 03:14:47;;;;;;;;;;;18.00;51.20;;;;;;6197980;28;19985;-68
2023/04/11 03:17:48;;;;;;;;;;;18.00;51.10;;;;;;6181150;28;19910;-68
2023/04/11 03:20:49;;;;;;;;;;;18.00;51.10;;;;;;6198146;28;20439;-68
2023/04/11 03:23:49;;;;;;;;;;;18.00;51.00;;;;;;6198450;28;19914;-68
2023/04/11 03:26:50;;;;;;;;;;;18.00;51.20;;;;;;6198079;28;19973;-68
2023/04/11 03:29:50;;;;;;;;;;;18.00;51.20;;;;;;6197072;28;19918;-68
2023/04/11 03:32:51;;;;;;;;;;;18.00;51.20;;;;;;6197901;28;19914;-68
2023/04/11 03:35:52;;;;;;;;;;;18.00;51.10;;;;;;6197973;28;19948;-68
2023/04/11 03:38:52;;;;;;;;;;;18.00;51.10;;;;;;6197967;28;19910;-68
2023/04/11 03:41:53;;;;;;;;;;;18.00;51.10;;;;;;6195808;28;19917;-68
2023/04/11 03:44:54;;;;;;;;;;;18.00;51.30;;;;;;6197828;28;19910;-68
2023/04/11 03:47:54;;;;;;;;;;;18.00;51.20;;;;;;6180830;28;19914;-68
2023/04/11 03:50:55;;;;;;;;;;;18.00;51.20;;;;;;6180611;28;19941;-68
2023/04/11 03:53:56;;;;;;;;;;;18.00;51.20;;;;;;6197684;28;20276;-68
2023/04/11 03:56:56;;;;;;;;;;;18.00;51.20;;;;;;6197427;28;19964;-68
2023/04/11 03:59:57;;;;;;;;;;;18.00;51.10;;;;;;6197688;28;19924;-68
2023/04/11 04:02:58;;;;;;;;;;;18.00;51.10;;;;;;6197224;28;19969;-68
2023/04/11 04:06:00;;;;;;;;;;;18.00;51.20;;;;;;6196871;28;20198;-68
2023/04/11 04:09:00;;;;;;;;;;;18.00;51.20;;;;;;6196863;28;19917;-68
2023/04/11 04:12:02;;;;;;;;;;;18.00;51.20;;;;;;6197319;28;19937;-68
2023/04/11 04:15:03;;;;;;;;;;;18.00;51.30;;;;;;6197056;28;19924;-68
2023/04/11 04:18:03;;;;;;;;;;;18.00;51.20;;;;;;6197557;28;20319;-68
2023/04/11 04:21:06;;;;;;;;;;;18.00;51.20;;;;;;6197342;28;20308;-68
2023/04/11 04:24:06;;;;;;;;;;;18.00;51.10;;;;;;6197618;28;19910;-68
2023/04/11 04:27:10;;;;;;;;;;;18.00;51.00;;;;;;6196639;28;19957;-68
2023/04/11 04:30:14;;;;;;;;;;;18.00;51.20;;;;;;6196930;28;19918;-67
2023/04/11 04:33:17;;;;;;;;;;;18.00;51.20;;;;;;6196824;28;19910;-68
2023/04/11 04:36:18;;;;;;;;;;;18.00;51.10;;;;;;6179221;28;20396;-68
2023/04/11 04:39:19;;;;;;;;;;;18.00;51.10;;;;;;6196826;28;19910;-68
2023/04/11 04:42:21;;;;;;;;;;;18.00;51.20;;;;;;6197030;28;19977;-68
2023/04/11 04:45:22;;;;;;;;;;;18.00;51.20;;;;;;6196775;28;19913;-68
2023/04/11 04:48:24;;;;;;;;;;;18.00;51.20;;;;;;6178571;28;19910;-68
2023/04/11 04:51:26;;;;;;;;;;;18.00;51.20;;;;;;6196530;28;19945;-68
2023/04/11 04:54:27;;;;;;;;;;;18.00;51.20;;;;;;6195952;28;19910;-68
2023/04/11 04:57:28;;;;;;;;;;;18.00;51.30;;;;;;6196561;28;19909;-68
2023/04/11 05:00:41;;;;;;;;;;;18.00;51.40;;;;;;6196502;28;19917;-67
2023/04/11 05:03:45;;;;;;;;;;;18.00;51.50;;;;;;6172153;28;19929;-67
2023/04/11 05:06:46;;;;;;;;;;;18.00;51.30;;;;;;6171854;28;20329;-67
2023/04/11 05:09:47;;;;;;;;;;;18.00;51.30;;;;;;6154373;28;19914;-67
2023/04/11 05:12:47;;;;;;;;;;;18.00;51.30;;;;;;6171856;28;19914;-67
2023/04/11 05:15:49;;;;;;;;;;;18.00;51.40;;;;;;6172659;28;19918;-67
2023/04/11 05:18:49;;;;;;;;;;;18.00;51.40;;;;;;6195724;28;19913;-67
2023/04/11 05:21:50;;;;;;;;;;;18.00;51.40;;;;;;6178399;28;19916;-66
2023/04/11 05:24:50;;;;;;;;;;;18.00;51.40;;;;;;6178149;28;19917;-66
2023/04/11 05:27:51;;;;;;;;;;;18.00;51.50;;;;;;6196310;28;19965;-67
2023/04/11 05:30:51;;;;;;;;;;;18.10;51.50;;;;;;6178340;28;19921;-67
2023/04/11 05:33:52;;;;;;;;;;;18.00;51.40;;;;;;6178343;28;19914;-66
2023/04/11 05:36:52;;;;;;;;;;;18.00;51.40;;;;;;6177991;28;19910;-67
2023/04/11 05:39:55;;;;;;;;;;;18.00;51.50;;;;;;6195454;28;19914;-67
2023/04/11 05:42:55;;;;;;;;;;;18.00;51.50;;;;;;6178160;28;19922;-67
2023/04/11 05:45:56;;;;;;;;;;;18.00;51.40;;;;;;6195563;28;20436;-67
2023/04/11 05:48:59;;;;;;;;;;;18.00;51.40;;;;;;6195580;28;20281;-66
2023/04/11 05:52:00;;;;;;;;;;;18.00;51.60;;;;;;6177815;28;19917;-66
2023/04/11 05:55:01;;;;;;;;;;;18.00;51.50;;;;;;6195737;28;20292;-68
2023/04/11 05:58:01;;;;;;;;;;;18.00;51.60;;;;;;6195841;28;20369;-67
2023/04/11 06:01:02;;;;;;;;;;;18.00;51.60;;;;;;6193264;28;20021;-67
2023/04/11 06:04:05;;;;;;;;;;;18.00;51.60;;;;;;6197098;28;20021;-68
2023/04/11 06:07:07;;;;;;;;;;;18.00;51.50;;;;;;6189971;28;20686;-68
2023/04/11 06:10:09;;;;;;;;;;;18.10;51.70;;;;;;6197034;28;20479;-67
2023/04/11 06:13:19;;;;;;;;;;;18.10;51.90;;;;;;6196749;28;19961;-68
2023/04/11 06:34:39;;;;;;;;;;;18.10;51.70;;;;;;6171714;28;19965;-69
2023/04/11 06:37:46;;;;;;;;;;;18.10;51.90;;;;;;6179652;28;20388;-67
2023/04/11 06:40:53;;;;;;;;;;;18.10;51.90;;;;;;6196493;28;20027;-68
2023/04/11 06:43:54;;;;;;;;;;;18.10;51.90;;;;;;6179533;28;19914;-68
2023/04/11 06:46:55;;;;;;;;;;;18.10;51.90;;;;;;6195691;28;20437;-70
2023/04/11 06:49:56;;;;;;;;;;;18.10;51.90;;;;;;6172156;28;20400;-68
2023/04/11 06:52:57;;;;;;;;;;;18.10;51.90;;;;;;6160040;28;20369;-68
2023/04/11 06:55:59;;;;;;;;;;;18.10;51.90;;;;;;6178381;28;20009;-68
2023/04/11 06:59:00;;;;;;;;;;;18.10;51.90;;;;;;6196087;28;20269;-68
2023/04/11 07:02:01;;;;;;;;;;;18.10;51.80;;;;;;6194727;28;19918;-69
2023/04/11 07:05:02;;;;;;;;;;;18.10;51.90;;;;;;6196484;28;20280;-69
2023/04/11 07:08:02;;;;;;;;;;;18.10;52.20;;;;;;6178452;28;19913;-69
2023/04/11 07:11:04;;;;;;;;;;;18.10;51.90;;;;;;6196079;28;19969;-69
2023/04/11 07:14:05;;;;;;;;;;;18.10;51.80;;;;;;6196280;28;19910;-68
2023/04/11 07:17:06;;;;;;;;;;;18.10;51.90;;;;;;6192259;28;19913;-69
2023/04/11 07:20:08;;;;;;;;;;;18.10;51.80;;;;;;6200153;28;19909;-69
2023/04/11 07:23:34;;;;;;;;;;;18.10;52.00;;;;;;6182405;28;20435;-68
2023/04/11 07:26:37;;;;;;;;;;;18.10;52.00;;;;;;6177364;28;20096;-69
2023/04/11 07:29:40;;;;;;;;;;;18.10;52.00;;;;;;6200216;28;19914;-69
2023/04/11 07:32:42;;;;;;;;;;;18.10;51.90;;;;;;6200625;28;19909;-69
2023/04/11 07:36:07;;;;;;;;;;;18.10;51.90;;;;;;6192248;28;19937;-68
2023/04/11 07:39:11;;;;;;;;;;;18.10;52.00;;;;;;6160751;28;19946;-67
2023/04/11 07:42:11;;;;;;;;;;;18.10;52.10;;;;;;6194673;28;19910;-68
2023/04/11 07:45:12;;;;;;;;;;;18.20;52.10;;;;;;6203561;28;20298;-67
2023/04/11 07:48:13;;;;;;;;;;;18.10;52.00;;;;;;6175886;28;20288;-69
2023/04/11 07:51:15;;;;;;;;;;;18.10;52.00;;;;;;6199199;28;19913;-68
2023/04/11 07:54:16;;;;;;;;;;;18.10;52.10;;;;;;6185877;28;19917;-68
2023/04/11 07:57:17;;;;;;;;;;;18.10;52.20;;;;;;6223568;28;19921;-68
2023/04/11 08:00:19;;;;;;;;;;;18.10;52.20;;;;;;6189756;28;20608;-68
2023/04/11 08:03:20;;;;;;;;;;;18.10;52.30;;;;;;6197732;28;19925;-69
2023/04/11 08:06:21;;;;;;;;;;;18.10;52.30;;;;;;6190557;28;19910;-69
2023/04/11 08:09:22;;;;;;;;;;;18.10;52.30;;;;;;6164473;28;19921;-69
2023/04/11 08:12:22;;;;;;;;;;;18.10;52.40;;;;;;6198555;28;19921;-68
2023/04/11 08:15:24;;;;;;;;;;;18.10;52.40;;;;;;6198373;28;20336;-69
2023/04/11 08:18:25;;;;;;;;;;;18.10;52.50;;;;;;6181561;28;20016;-68
2023/04/11 08:21:26;;;;;;;;;;;18.10;52.70;;;;;;6198442;28;20364;-69
2023/04/11 08:24:26;;;;;;;;;;;18.10;52.80;;;;;;6198130;28;19916;-68
2023/04/11 08:27:27;;;;;;;;;;;18.20;52.90;;;;;;6198011;28;19921;-68
2023/04/11 08:30:28;;;;;;;;;;;18.10;52.50;;;;;;6198032;28;19913;-68
2023/04/11 08:33:29;;;;;;;;;;;18.20;52.90;;;;;;6198430;28;19910;-69
2023/04/11 08:36:30;;;;;;;;;;;18.20;52.70;;;;;;6196869;28;19909;-68
2023/04/11 08:39:30;;;;;;;;;;;18.20;52.60;;;;;;6198407;28;19913;-69
2023/04/11 08:42:32;;;;;;;;;;;18.20;52.80;;;;;;6181136;28;20384;-68
2023/04/11 08:45:32;;;;;;;;;;;18.20;52.90;;;;;;6183644;28;19918;-69
2023/04/11 08:48:33;;;;;;;;;;;18.20;52.70;;;;;;6173828;28;19966;-69
2023/04/11 08:51:34;;;;;;;;;;;18.20;52.70;;;;;;6170514;28;19918;-69
2023/04/11 08:54:34;;;;;;;;;;;18.20;52.70;;;;;;6160952;28;19914;-69
2023/04/11 08:57:37;;;;;;;;;;;18.20;52.70;;;;;;6198155;28;19913;-69
2023/04/11 09:00:37;;;;;;;;;;;18.20;52.70;;;;;;6196981;28;20002;-69
2023/04/11 09:03:48;;;;;;;;;;;18.20;52.70;;;;;;6197898;28;20356;-69
2023/04/11 09:06:57;;;;;;;;;;;18.20;52.70;;;;;;6197204;28;19910;-69
2023/04/11 09:10:16;;;;;;;;;;;18.20;52.70;;;;;;6196020;28;19930;-69
2023/04/11 09:13:24;;;;;;;;;;;18.20;52.70;;;;;;6197344;28;20004;-68
2023/04/11 09:16:24;;;;;;;;;;;18.20;52.70;;;;;;6197034;28;19910;-70
2023/04/11 09:19:26;;;;;;;;;;;18.20;52.70;;;;;;6197838;28;19949;-68
2023/04/11 09:22:34;;;;;;;;;;;18.20;52.70;;;;;;6197164;28;20521;-69
2023/04/11 09:25:42;;;;;;;;;;;18.20;52.70;;;;;;6180074;28;19909;-69
2023/04/11 09:28:49;;;;;;;;;;;18.20;52.80;;;;;;6180248;28;20009;-69
2023/04/11 09:31:50;;;;;;;;;;;18.20;52.70;;;;;;6179528;28;19914;-71
2023/04/11 09:34:50;;;;;;;;;;;18.20;52.80;;;;;;6180215;28;19953;-71
2023/04/11 09:38:08;;;;;;;;;;;18.20;52.70;;;;;;6198111;28;19945;-71
2023/04/11 09:41:08;;;;;;;;;;;18.20;52.70;;;;;;6185717;28;19915;-71
2023/04/11 09:44:09;;;;;;;;;;;18.20;52.70;;;;;;6173147;28;19910;-71
2023/04/11 09:47:10;;;;;;;;;;;18.20;52.70;;;;;;6191755;28;19917;-69
2023/04/11 09:50:11;;;;;;;;;;;18.20;52.60;;;;;;6197035;28;19914;-69
2023/04/11 09:53:12;;;;;;;;;;;18.20;52.70;;;;;;6196967;28;19962;-69
2023/04/11 09:56:16;;;;;;;;;;;18.10;52.60;;;;;;6176503;28;20427;-69
2023/04/11 09:59:18;;;;;;;;;;;18.10;52.60;;;;;;6196663;28;19925;-68
2023/04/11 10:02:19;;;;;;;;;;;18.10;52.60;;;;;;6191236;28;19930;-70
2023/04/11 10:05:25;;;;;;;;;;;18.20;52.70;;;;;;6154603;28;19914;-70
2023/04/11 10:08:35;;;;;;;;;;;18.10;52.60;;;;;;6172273;28;19917;-69
2023/04/11 10:11:39;;;;;;;;;;;18.20;52.70;;;;;;6153908;28;19917;-68
2023/04/11 10:14:40;;;;;;;;;;;18.20;52.70;;;;;;6154086;28;20013;-69
2023/04/11 10:17:41;;;;;;;;;;;18.20;52.70;;;;;;6168876;28;19989;-69
2023/04/11 10:20:43;;;;;;;;;;;18.20;52.70;;;;;;6155207;28;19918;-69
2023/04/11 10:24:03;;;;;;;;;;;18.20;52.70;;;;;;6171265;28;19996;-69
2023/04/11 10:27:03;;;;;;;;;;;18.10;52.60;;;;;;6154314;28;19917;-69
2023/04/11 10:30:06;;;;;;;;;;;18.20;52.70;;;;;;6172084;28;19918;-69
2023/04/11 10:33:16;;;;;;;;;;;18.20;52.70;;;;;;6171255;28;19918;-69
2023/04/11 10:36:17;;;;;;;;;;;18.20;52.70;;;;;;6157761;28;20293;-69
2023/04/11 10:39:38;;;;;;;;;;;18.20;52.70;;;;;;6170849;28;19910;-69
2023/04/11 10:42:43;;;;;;;;;;;18.20;52.70;;;;;;6171153;28;19918;-69
2023/04/11 10:45:44;;;;;;;;;;;18.20;52.80;;;;;;6170998;28;20327;-69
2023/04/11 10:49:01;;;;;;;;;;;18.10;52.60;;;;;;6171027;28;19914;-69
2023/04/11 10:52:19;;;;;;;;;;;18.10;52.60;;;;;;6173268;28;19968;-69
2023/04/11 10:55:20;;;;;;;;;;;18.10;52.70;;;;;;6176173;28;19914;-70
2023/04/11 10:58:21;;;;;;;;;;;18.20;52.80;;;;;;6153549;28;19911;-69
2023/04/11 11:01:22;;;;;;;;;;;18.10;52.70;;;;;;6158347;28;19966;-68
2023/04/11 11:04:30;;;;;;;;;;;18.20;52.80;;;;;;6173774;28;19922;-69
2023/04/11 11:07:32;;;;;;;;;;;18.20;52.80;;;;;;6190575;28;19918;-69
2023/04/11 11:10:37;;;;;;;;;;;18.20;52.80;;;;;;6182029;28;20440;-69
2023/04/11 11:13:37;;;;;;;;;;;18.20;52.80;;;;;;6180361;28;19910;-68
2023/04/11 11:16:39;;;;;;;;;;;18.20;52.80;;;;;;6182016;28;19910;-69
2023/04/11 11:19:46;;;;;;;;;;;18.10;52.70;;;;;;6199929;28;19916;-69
2023/04/11 11:22:57;;;;;;;;;;;18.20;52.80;;;;;;6199395;28;19910;-69
2023/04/11 11:25:58;;;;;;;;;;;18.20;52.80;;;;;;6198041;28;19914;-69
2023/04/11 11:28:59;;;;;;;;;;;18.20;52.80;;;;;;6199264;28;20416;-69
2023/04/11 11:32:02;;;;;;;;;;;18.20;52.90;;;;;;6198744;28;19982;-69
2023/04/11 11:35:12;;;;;;;;;;;18.10;52.80;;;;;;6199072;28;19909;-69
2023/04/11 11:38:13;;;;;;;;;;;18.20;52.80;;;;;;6199483;28;19910;-69
2023/04/11 11:41:14;;;;;;;;;;;18.20;52.90;;;;;;6199939;28;19981;-70
2023/04/11 11:44:22;;;;;;;;;;;18.10;52.70;;;;;;6199421;28;19910;-69
2023/04/11 11:47:24;;;;;;;;;;;18.20;52.90;;;;;;6198940;28;19913;-70
2023/04/11 11:50:26;;;;;;;;;;;18.10;52.80;;;;;;6181473;28;20317;-69
2023/04/11 11:53:26;;;;;;;;;;;18.10;52.80;;;;;;6198100;28;19914;-69
2023/04/11 11:56:27;;;;;;;;;;;18.10;52.80;;;;;;6198805;28;19933;-69
2023/04/11 11:59:28;;;;;;;;;;;18.20;52.90;;;;;;6180224;28;19973;-69
2023/04/11 12:02:28;;;;;;;;;;;18.20;52.90;;;;;;6198073;28;19980;-69
2023/04/11 12:05:33;;;;;;;;;;;18.10;52.80;;;;;;6180837;28;19909;-69
2023/04/11 12:08:39;;;;;;;;;;;18.10;52.90;;;;;;6197937;28;19909;-69
2023/04/11 12:11:40;;;;;;;;;;;18.20;53.60;;;;;;6180765;28;19917;-69
2023/04/11 12:14:50;;;;;;;;;;;18.20;53.00;;;;;;6180034;28;19957;-69
2023/04/11 12:17:52;;;;;;;;;;;18.20;52.90;;;;;;6198012;28;19910;-69
2023/04/11 12:20:52;;;;;;;;;;;18.20;52.90;;;;;;6198113;28;19952;-69
2023/04/11 12:23:53;;;;;;;;;;;18.10;52.90;;;;;;6197830;28;19909;-69
2023/04/11 12:26:54;;;;;;;;;;;18.10;52.90;;;;;;6197666;28;19910;-69
2023/04/11 12:29:55;;;;;;;;;;;18.20;53.00;;;;;;6180303;28;20368;-69
2023/04/11 12:32:56;;;;;;;;;;;18.20;52.90;;;;;;6180212;28;19937;-68
2023/04/11 12:35:57;;;;;;;;;;;18.10;52.90;;;;;;6179984;28;19960;-69
2023/04/11 12:38:57;;;;;;;;;;;18.20;53.00;;;;;;6191986;28;19910;-69
2023/04/11 12:41:58;;;;;;;;;;;18.20;53.10;;;;;;6174086;28;19965;-69
2023/04/11 12:44:58;;;;;;;;;;;18.10;52.90;;;;;;6188270;28;19917;-69
2023/04/11 12:47:59;;;;;;;;;;;18.20;53.00;;;;;;6197739;28;19916;-69
2023/04/11 12:51:00;;;;;;;;;;;18.20;53.00;;;;;;6197366;28;20325;-70
2023/04/11 12:54:00;;;;;;;;;;;18.20;52.90;;;;;;6197593;28;19997;-70
2023/04/11 12:57:01;;;;;;;;;;;18.20;53.00;;;;;;6197195;28;19914;-70
2023/04/11 13:00:10;;;;;;;;;;;18.20;53.00;;;;;;6193098;28;19909;-70
2023/04/11 13:03:11;;;;;;;;;;;18.20;53.00;;;;;;6197290;28;19941;-69
2023/04/11 13:06:27;;;;;;;;;;;18.20;53.10;;;;;;6197188;28;19917;-71
2023/04/11 13:09:28;;;;;;;;;;;18.20;53.10;;;;;;6196896;28;19922;-70
2023/04/11 13:12:29;;;;;;;;;;;18.20;53.10;;;;;;6195415;28;19910;-69
2023/04/11 13:15:30;;;;;;;;;;;18.20;53.10;;;;;;6196125;28;19917;-69
2023/04/11 13:18:31;;;;;;;;;;;18.20;53.00;;;;;;6193542;28;20322;-70
2023/04/11 13:21:31;;;;;;;;;;;18.20;53.10;;;;;;6196327;28;19910;-71
2023/04/11 13:24:32;;;;;;;;;;;18.20;53.10;;;;;;6197146;28;20004;-69
2023/04/11 13:27:33;;;;;;;;;;;18.20;53.10;;;;;;6196712;28;19910;-69
2023/04/11 13:30:34;;;;;;;;;;;18.20;53.10;;;;;;6197044;28;19914;-68
2023/04/11 13:33:35;;;;;;;;;;;18.10;53.10;;;;;;6196917;28;19909;-69
2023/04/11 13:36:35;;;;;;;;;;;18.10;53.10;;;;;;6196824;28;19942;-69
2023/04/11 13:39:36;;;;;;;;;;;18.20;53.10;;;;;;6179482;28;19910;-69
2023/04/11 13:42:36;;;;;;;;;;;18.20;53.10;;;;;;6195673;28;20360;-69
2023/04/11 13:45:37;;;;;;;;;;;18.10;53.00;;;;;;6196643;28;19914;-70
2023/04/11 13:48:38;;;;;;;;;;;18.10;53.10;;;;;;6196788;28;19917;-69
2023/04/11 13:51:38;;;;;;;;;;;18.20;53.80;;;;;;6196889;28;19945;-69
2023/04/11 13:54:39;;;;;;;;;;;18.20;53.10;;;;;;6196508;28;19910;-69
2023/04/11 13:57:40;;;;;;;;;;;18.20;53.10;;;;;;6196721;28;19910;-69
2023/04/11 14:00:40;;;;;;;;;;;18.20;53.10;;;;;;6196574;28;19910;-69
2023/04/11 14:03:41;;;;;;;;;;;18.20;53.10;;;;;;6196691;28;19929;-69
2023/04/11 14:06:42;;;;;;;;;;;18.20;53.20;;;;;;6179020;28;19910;-69
2023/04/11 14:09:42;;;;;;;;;;;18.20;53.10;;;;;;6196551;28;19914;-69
2023/04/11 14:12:43;;;;;;;;;;;18.20;53.20;;;;;;6196301;28;19953;-68
2023/04/11 14:15:44;;;;;;;;;;;18.20;53.10;;;;;;6196149;28;20008;-69
2023/04/11 14:18:45;;;;;;;;;;;18.20;53.10;;;;;;6196647;28;19910;-69
2023/04/11 14:21:46;;;;;;;;;;;18.20;53.10;;;;;;6196473;28;20631;-69
2023/04/11 14:24:46;;;;;;;;;;;18.20;53.10;;;;;;6196602;28;19910;-68
2023/04/11 14:27:47;;;;;;;;;;;18.10;53.10;;;;;;6200043;28;19909;-68
2023/04/11 14:30:47;;;;;;;;;;;18.20;53.10;;;;;;6200950;28;19953;-69
2023/04/11 14:33:48;;;;;;;;;;;18.20;53.10;;;;;;6201265;28;19937;-69
2023/04/11 14:36:49;;;;;;;;;;;18.20;53.10;;;;;;6195274;28;19910;-69
2023/04/11 14:39:49;;;;;;;;;;;18.20;53.10;;;;;;6201231;28;19953;-68
2023/04/11 14:42:50;;;;;;;;;;;18.10;53.10;;;;;;6200960;28;20000;-69
2023/04/11 14:45:54;;;;;;;;;;;18.20;53.10;;;;;;6183370;28;20333;-69
2023/04/11 14:48:55;;;;;;;;;;;18.20;53.10;;;;;;6200985;28;20372;-68
2023/04/11 14:51:55;;;;;;;;;;;18.20;53.10;;;;;;6201159;28;19948;-69
2023/04/11 14:54:56;;;;;;;;;;;18.20;53.10;;;;;;6182962;28;20005;-69
2023/04/11 14:57:56;;;;;;;;;;;18.20;53.10;;;;;;6183494;28;19910;-69
2023/04/11 15:00:57;;;;;;;;;;;18.20;53.10;;;;;;6200895;28;19953;-69
2023/04/11 15:03:58;;;;;;;;;;;18.20;53.10;;;;;;6200676;28;19984;-69
2023/04/11 15:06:58;;;;;;;;;;;18.20;53.10;;;;;;6200435;28;19985;-69
2023/04/11 15:10:00;;;;;;;;;;;18.20;53.10;;;;;;6182599;28;19949;-69
2023/04/11 15:13:02;;;;;;;;;;;18.20;53.10;;;;;;6182658;28;19913;-69
2023/04/11 15:16:03;;;;;;;;;;;18.20;53.10;;;;;;6200458;28;19944;-69
2023/04/11 15:19:04;;;;;;;;;;;18.20;53.10;;;;;;6200183;28;20373;-69
2023/04/11 15:22:05;;;;;;;;;;;18.20;53.10;;;;;;6200097;28;19933;-68
2023/04/11 15:25:06;;;;;;;;;;;18.20;53.00;;;;;;6182189;28;20365;-68
2023/04/11 15:28:07;;;;;;;;;;;18.20;53.10;;;;;;6198575;28;19914;-69
2023/04/11 15:31:08;;;;;;;;;;;18.20;53.10;;;;;;6200417;28;19958;-69
2023/04/11 15:34:08;;;;;;;;;;;18.20;53.10;;;;;;6182473;28;19914;-68
2023/04/11 15:37:12;;;;;;;;;;;18.20;53.10;;;;;;6198802;28;19916;-69
2023/04/11 15:40:14;;;;;;;;;;;18.20;53.10;;;;;;6183095;28;19981;-69
2023/04/11 15:43:15;;;;;;;;;;;18.20;53.10;;;;;;6200573;28;19977;-69
2023/04/11 15:46:15;;;;;;;;;;;18.20;53.10;;;;;;6200226;28;19945;-68
2023/04/11 15:49:16;;;;;;;;;;;18.20;53.10;;;;;;6200111;28;19921;-69
2023/04/11 15:52:17;;;;;;;;;;;18.20;53.10;;;;;;6200035;28;19914;-68
2023/04/11 15:55:17;;;;;;;;;;;18.20;53.10;;;;;;6199868;28;19914;-69
2023/04/11 15:58:18;;;;;;;;;;;18.20;53.10;;;;;;6182580;28;19920;-69
2023/04/11 16:01:21;;;;;;;;;;;18.20;53.10;;;;;;6200124;28;19914;-69
2023/04/11 16:04:22;;;;;;;;;;;18.20;53.10;;;;;;6178300;28;19928;-69
2023/04/11 16:07:23;;;;;;;;;;;18.20;53.10;;;;;;6175772;28;19910;-68
2023/04/11 16:10:24;;;;;;;;;;;18.20;53.10;;;;;;6175410;28;19937;-68
2023/04/11 16:13:25;;;;;;;;;;;18.20;53.10;;;;;;6175503;28;20365;-68
2023/04/11 16:16:26;;;;;;;;;;;18.20;53.10;;;;;;6175407;28;19910;-68
2023/04/11 16:19:26;;;;;;;;;;;18.20;53.10;;;;;;6175164;28;19911;-68
2023/04/11 16:22:27;;;;;;;;;;;18.20;53.10;;;;;;6175009;28;20357;-68
2023/04/11 16:25:27;;;;;;;;;;;18.20;53.10;;;;;;6174309;28;19917;-68
2023/04/11 16:28:28;;;;;;;;;;;18.20;53.10;;;;;;6172497;28;19910;-68
2023/04/11 16:31:30;;;;;;;;;;;18.20;53.10;;;;;;6173074;28;19966;-68
2023/04/11 16:34:30;;;;;;;;;;;18.20;53.10;;;;;;6172744;28;20274;-68
2023/04/11 16:37:31;;;;;;;;;;;18.20;53.10;;;;;;6172532;28;20001;-69
2023/04/11 16:40:32;;;;;;;;;;;18.20;53.10;;;;;;6172367;28;19910;-69
2023/04/11 16:43:32;;;;;;;;;;;18.20;53.10;;;;;;6172245;28;19910;-68
2023/04/11 16:46:33;;;;;;;;;;;18.20;53.10;;;;;;6172462;28;20341;-68
2023/04/11 16:49:34;;;;;;;;;;;18.20;53.00;;;;;;6172021;28;19914;-68
2023/04/11 16:52:34;;;;;;;;;;;18.20;53.10;;;;;;6172514;28;19914;-69
2023/04/11 16:55:36;;;;;;;;;;;18.20;53.10;;;;;;6154684;28;19918;-68
2023/04/11 16:58:36;;;;;;;;;;;18.20;53.10;;;;;;6154562;28;19914;-69
2023/04/11 17:01:37;;;;;;;;;;;18.20;53.00;;;;;;6151633;28;19958;-69
2023/04/11 17:04:38;;;;;;;;;;;18.20;53.10;;;;;;6186268;28;19922;-68
2023/04/11 17:07:38;;;;;;;;;;;18.20;53.10;;;;;;6196294;28;20262;-69
2023/04/11 17:10:39;;;;;;;;;;;18.20;53.10;;;;;;6186872;28;20021;-68
2023/04/11 17:13:44;;;;;;;;;;;18.20;53.10;;;;;;6154777;28;19918;-69
2023/04/11 17:16:45;;;;;;;;;;;18.20;53.10;;;;;;6171664;28;19941;-68
2023/04/11 17:19:45;;;;;;;;;;;18.20;53.10;;;;;;6172075;28;19964;-68
2023/04/11 17:22:46;;;;;;;;;;;18.20;53.10;;;;;;6154657;28;19910;-68
2023/04/11 17:25:51;;;;;;;;;;;18.20;53.00;;;;;;6178315;28;19984;-68
2023/04/11 17:28:52;;;;;;;;;;;18.20;53.00;;;;;;6195656;28;19910;-68
2023/04/11 17:31:52;;;;;;;;;;;18.20;53.10;;;;;;6195722;28;19936;-68
2023/04/11 17:34:53;;;;;;;;;;;18.20;53.00;;;;;;6195610;28;19918;-68
2023/04/11 17:37:54;;;;;;;;;;;18.20;53.00;;;;;;6178473;28;19910;-68
2023/04/11 17:40:54;;;;;;;;;;;18.20;53.10;;;;;;6171428;28;19949;-68
2023/04/11 17:43:55;;;;;;;;;;;18.20;53.00;;;;;;6194751;28;19960;-69
2023/04/11 17:46:56;;;;;;;;;;;18.20;53.10;;;;;;6177985;28;19914;-68
2023/04/11 17:49:56;;;;;;;;;;;18.20;52.90;;;;;;6195043;28;19921;-69
2023/04/11 17:52:57;;;;;;;;;;;18.20;53.10;;;;;;6195440;28;19909;-69
2023/04/11 17:56:01;;;;;;;;;;;18.20;53.10;;;;;;6195078;28;19910;-69